sensor_id;sensor_type;location;lat;lon;timestamp;temperature;humidity
25753;DHT22;13600;50.816;4.416;2023-05-28T00:00:23;17.10;99.90
25753;DHT22;13600;50.816;4.416;2023-05-28T00:02:50;17.00;99.90
25753;DHT22;13600;50.816;4.416;2023-05-28T00:05:15;17.00;99.90
25753;DHT22;13600;50.816;4.416;2023-05-28T00:07:41;17.00;99.90
25753;DHT22;13600;50.816;4.416;2023-05-28T00:10:07;17.10;99.90
25753;DHT22;13600;50.816;4.416;2023-05-28T00:12:32;17.00;99.90
25753;DHT22;13600;50.816;4.416;2023-05-28T00:14:58;17.00;99.90
25753;DHT22;13600;50.816;4.416;2023-05-28T00:17:25;16.90;99.90
25753;DHT22;13600;50.816;4.416;2023-05-28T00:19:50;16.70;99.90
25753;DHT22;13600;50.816;4.416;2023-05-28T00:22:16;16.80;99.90
25753;DHT22;13600;50.816;4.416;2023-05-28T00:24:41;16.80;99.90
25753;DHT22;13600;50.816;4.416;2023-05-28T00:27:07;16.70;99.90
25753;DHT22;13600;50.816;4.416;2023-05-28T00:29:32;16.60;99.90
25753;DHT22;13600;50.816;4.416;2023-05-28T00:31:58;16.50;99.90
25753;DHT22;13600;50.816;4.416;2023-05-28T00:34:24;16.60;99.90
25753;DHT22;13600;50.816;4.416;2023-05-28T00:36:49;16.80;99.90
25753;DHT22;13600;50.816;4.416;2023-05-28T00:39:15;16.80;99.90
25753;DHT22;13600;50.816;4.416;2023-05-28T00:41:41;16.80;99.90
25753;DHT22;13600;50.816;4.416;2023-05-28T00:44:07;16.60;99.90
25753;DHT22;13600;50.816;4.416;2023-05-28T00:46:34;16.30;99.90
25753;DHT22;13600;50.816;4.416;2023-05-28T00:49:00;16.20;99.90
25753;DHT22;13600;50.816;4.416;2023-05-28T00:51:26;16.20;99.90
25753;DHT22;13600;50.816;4.416;2023-05-28T00:53:52;16.20;99.90
25753;DHT22;13600;50.816;4.416;2023-05-28T00:56:18;16.30;99.90
25753;DHT22;13600;50.816;4.416;2023-05-28T00:58:44;16.20;99.90
25753;DHT22;13600;50.816;4.416;2023-05-28T01:01:10;16.00;99.90
25753;DHT22;13600;50.816;4.416;2023-05-28T01:03:36;15.90;99.90
25753;DHT22;13600;50.816;4.416;2023-05-28T01:06:06;15.70;99.90
25753;DHT22;13600;50.816;4.416;2023-05-28T01:08:32;15.60;99.90
25753;DHT22;13600;50.816;4.416;2023-05-28T01:10:58;15.50;99.90
25753;DHT22;13600;50.816;4.416;2023-05-28T01:13:23;15.60;99.90
25753;DHT22;13600;50.816;4.416;2023-05-28T01:15:49;15.50;99.90
25753;DHT22;13600;50.816;4.416;2023-05-28T01:18:15;15.70;99.90
25753;DHT22;13600;50.816;4.416;2023-05-28T01:20:40;15.60;99.90
25753;DHT22;13600;50.816;4.416;2023-05-28T01:23:06;15.60;99.90
25753;DHT22;13600;50.816;4.416;2023-05-28T01:25:32;15.50;99.90
25753;DHT22;13600;50.816;4.416;2023-05-28T01:27:59;15.60;99.90
25753;DHT22;13600;50.816;4.416;2023-05-28T01:30:27;15.60;99.90
25753;DHT22;13600;50.816;4.416;2023-05-28T01:32:52;15.50;99.90
25753;DHT22;13600;50.816;4.416;2023-05-28T01:35:17;15.50;99.90
25753;DHT22;13600;50.816;4.416;2023-05-28T01:37:44;15.50;99.90
25753;DHT22;13600;50.816;4.416;2023-05-28T01:40:12;15.50;99.90
25753;DHT22;13600;50.816;4.416;2023-05-28T01:42:39;15.50;99.90
25753;DHT22;13600;50.816;4.416;2023-05-28T01:45:05;15.40;99.90
25753;DHT22;13600;50.816;4.416;2023-05-28T01:47:31;15.60;99.90
25753;DHT22;13600;50.816;4.416;2023-05-28T01:49:57;15.50;99.90
25753;DHT22;13600;50.816;4.416;2023-05-28T01:52:22;15.40;99.90
25753;DHT22;13600;50.816;4.416;2023-05-28T01:54:48;15.30;99.90
25753;DHT22;13600;50.816;4.416;2023-05-28T01:57:13;15.30;99.90
25753;DHT22;13600;50.816;4.416;2023-05-28T01:59:40;15.40;99.90
25753;DHT22;13600;50.816;4.416;2023-05-28T02:02:06;15.40;99.90
25753;DHT22;13600;50.816;4.416;2023-05-28T02:04:32;15.60;99.90
25753;DHT22;13600;50.816;4.416;2023-05-28T02:06:57;15.60;99.90
25753;DHT22;13600;50.816;4.416;2023-05-28T02:09:23;15.60;99.90
25753;DHT22;13600;50.816;4.416;2023-05-28T02:11:48;15.70;99.90
25753;DHT22;13600;50.816;4.416;2023-05-28T02:14:14;15.80;99.90
25753;DHT22;13600;50.816;4.416;2023-05-28T02:16:47;15.80;99.90
25753;DHT22;13600;50.816;4.416;2023-05-28T02:19:13;15.90;99.90
25753;DHT22;13600;50.816;4.416;2023-05-28T02:21:39;15.80;99.90
25753;DHT22;13600;50.816;4.416;2023-05-28T02:24:04;15.90;99.90
25753;DHT22;13600;50.816;4.416;2023-05-28T02:26:30;16.00;99.90
25753;DHT22;13600;50.816;4.416;2023-05-28T02:28:55;16.00;99.90
25753;DHT22;13600;50.816;4.416;2023-05-28T02:31:21;15.90;99.90
25753;DHT22;13600;50.816;4.416;2023-05-28T02:33:46;15.90;99.90
25753;DHT22;13600;50.816;4.416;2023-05-28T02:36:12;16.10;99.90
25753;DHT22;13600;50.816;4.416;2023-05-28T02:38:37;16.30;99.90
25753;DHT22;13600;50.816;4.416;2023-05-28T02:41:03;16.40;99.90
25753;DHT22;13600;50.816;4.416;2023-05-28T02:43:29;16.40;99.90
25753;DHT22;13600;50.816;4.416;2023-05-28T02:45:55;16.40;99.90
25753;DHT22;13600;50.816;4.416;2023-05-28T02:48:20;16.20;99.90
25753;DHT22;13600;50.816;4.416;2023-05-28T02:50:45;16.10;99.90
25753;DHT22;13600;50.816;4.416;2023-05-28T02:53:11;16.10;99.90
25753;DHT22;13600;50.816;4.416;2023-05-28T02:55:36;15.90;99.90
25753;DHT22;13600;50.816;4.416;2023-05-28T02:58:02;15.70;99.90
25753;DHT22;13600;50.816;4.416;2023-05-28T03:00:28;15.60;99.90
25753;DHT22;13600;50.816;4.416;2023-05-28T03:02:54;15.60;99.90
25753;DHT22;13600;50.816;4.416;2023-05-28T03:05:19;15.50;99.90
25753;DHT22;13600;50.816;4.416;2023-05-28T03:07:45;15.30;99.90
25753;DHT22;13600;50.816;4.416;2023-05-28T03:10:10;15.20;99.90
25753;DHT22;13600;50.816;4.416;2023-05-28T03:12:36;15.00;99.90
25753;DHT22;13600;50.816;4.416;2023-05-28T03:15:01;15.10;99.90
25753;DHT22;13600;50.816;4.416;2023-05-28T03:17:27;15.00;99.90
25753;DHT22;13600;50.816;4.416;2023-05-28T03:19:53;15.00;99.90
25753;DHT22;13600;50.816;4.416;2023-05-28T03:22:19;15.00;99.90
25753;DHT22;13600;50.816;4.416;2023-05-28T03:24:44;15.10;99.90
25753;DHT22;13600;50.816;4.416;2023-05-28T03:27:10;15.00;99.90
25753;DHT22;13600;50.816;4.416;2023-05-28T03:29:35;15.00;99.90
25753;DHT22;13600;50.816;4.416;2023-05-28T03:32:01;15.00;99.90
25753;DHT22;13600;50.816;4.416;2023-05-28T03:34:26;14.80;99.90
25753;DHT22;13600;50.816;4.416;2023-05-28T03:36:52;14.80;99.90
25753;DHT22;13600;50.816;4.416;2023-05-28T03:39:17;14.80;99.90
25753;DHT22;13600;50.816;4.416;2023-05-28T03:41:43;14.90;99.90
25753;DHT22;13600;50.816;4.416;2023-05-28T03:44:11;14.90;99.90
25753;DHT22;13600;50.816;4.416;2023-05-28T03:46:37;15.00;99.90
25753;DHT22;13600;50.816;4.416;2023-05-28T03:49:03;15.00;99.90
25753;DHT22;13600;50.816;4.416;2023-05-28T03:51:29;14.90;99.90
25753;DHT22;13600;50.816;4.416;2023-05-28T03:53:55;14.90;99.90
25753;DHT22;13600;50.816;4.416;2023-05-28T03:56:20;14.90;99.90
25753;DHT22;13600;50.816;4.416;2023-05-28T03:58:46;14.80;99.90
25753;DHT22;13600;50.816;4.416;2023-05-28T04:01:11;14.90;99.90
25753;DHT22;13600;50.816;4.416;2023-05-28T04:03:38;14.70;99.90
25753;DHT22;13600;50.816;4.416;2023-05-28T04:06:03;14.80;99.90
25753;DHT22;13600;50.816;4.416;2023-05-28T04:08:29;14.90;99.90
25753;DHT22;13600;50.816;4.416;2023-05-28T04:10:54;15.00;99.90
25753;DHT22;13600;50.816;4.416;2023-05-28T04:13:21;15.00;99.90
25753;DHT22;13600;50.816;4.416;2023-05-28T04:15:47;15.00;99.90
25753;DHT22;13600;50.816;4.416;2023-05-28T04:18:13;15.10;99.90
25753;DHT22;13600;50.816;4.416;2023-05-28T04:20:38;15.10;99.90
25753;DHT22;13600;50.816;4.416;2023-05-28T04:23:04;15.00;99.90
25753;DHT22;13600;50.816;4.416;2023-05-28T04:25:29;15.10;99.90
25753;DHT22;13600;50.816;4.416;2023-05-28T04:27:55;15.20;99.90
25753;DHT22;13600;50.816;4.416;2023-05-28T04:30:22;15.20;99.90
25753;DHT22;13600;50.816;4.416;2023-05-28T04:32:48;15.10;99.90
25753;DHT22;13600;50.816;4.416;2023-05-28T04:35:16;15.10;99.90
25753;DHT22;13600;50.816;4.416;2023-05-28T04:37:43;15.20;99.90
25753;DHT22;13600;50.816;4.416;2023-05-28T04:40:09;15.10;99.90
25753;DHT22;13600;50.816;4.416;2023-05-28T04:42:38;15.20;99.90
25753;DHT22;13600;50.816;4.416;2023-05-28T04:45:08;15.20;99.90
25753;DHT22;13600;50.816;4.416;2023-05-28T04:47:34;15.20;99.90
25753;DHT22;13600;50.816;4.416;2023-05-28T04:50:00;15.20;99.90
25753;DHT22;13600;50.816;4.416;2023-05-28T04:52:26;15.40;99.90
25753;DHT22;13600;50.816;4.416;2023-05-28T04:54:52;15.50;99.90
25753;DHT22;13600;50.816;4.416;2023-05-28T04:57:17;15.50;99.90
25753;DHT22;13600;50.816;4.416;2023-05-28T04:59:43;15.40;99.90
25753;DHT22;13600;50.816;4.416;2023-05-28T05:02:09;15.40;99.90
25753;DHT22;13600;50.816;4.416;2023-05-28T05:04:35;15.50;99.90
25753;DHT22;13600;50.816;4.416;2023-05-28T05:07:00;15.60;99.90
25753;DHT22;13600;50.816;4.416;2023-05-28T05:09:27;15.70;99.90
25753;DHT22;13600;50.816;4.416;2023-05-28T05:11:52;15.80;99.90
25753;DHT22;13600;50.816;4.416;2023-05-28T05:14:18;15.70;99.90
25753;DHT22;13600;50.816;4.416;2023-05-28T05:16:43;15.90;99.90
25753;DHT22;13600;50.816;4.416;2023-05-28T05:19:09;16.00;99.90
25753;DHT22;13600;50.816;4.416;2023-05-28T05:21:35;16.00;99.90
25753;DHT22;13600;50.816;4.416;2023-05-28T05:24:01;15.90;99.90
25753;DHT22;13600;50.816;4.416;2023-05-28T05:26:26;16.00;99.90
25753;DHT22;13600;50.816;4.416;2023-05-28T05:28:53;16.10;99.90
25753;DHT22;13600;50.816;4.416;2023-05-28T05:31:18;16.20;99.90
25753;DHT22;13600;50.816;4.416;2023-05-28T05:33:44;16.30;99.90
25753;DHT22;13600;50.816;4.416;2023-05-28T05:36:09;16.60;99.90
25753;DHT22;13600;50.816;4.416;2023-05-28T05:38:36;16.70;99.90
25753;DHT22;13600;50.816;4.416;2023-05-28T05:41:01;16.60;99.90
25753;DHT22;13600;50.816;4.416;2023-05-28T05:43:27;16.50;99.90
25753;DHT22;13600;50.816;4.416;2023-05-28T05:45:52;16.40;99.90
25753;DHT22;13600;50.816;4.416;2023-05-28T05:48:18;16.70;99.90
25753;DHT22;13600;50.816;4.416;2023-05-28T05:50:47;16.80;99.90
25753;DHT22;13600;50.816;4.416;2023-05-28T05:53:13;16.80;99.90
25753;DHT22;13600;50.816;4.416;2023-05-28T05:55:38;16.90;99.90
25753;DHT22;13600;50.816;4.416;2023-05-28T05:58:04;16.90;99.90
25753;DHT22;13600;50.816;4.416;2023-05-28T06:00:29;16.90;99.90
25753;DHT22;13600;50.816;4.416;2023-05-28T06:02:55;16.90;99.90
25753;DHT22;13600;50.816;4.416;2023-05-28T06:05:21;17.20;99.90
25753;DHT22;13600;50.816;4.416;2023-05-28T06:07:47;17.20;99.90
25753;DHT22;13600;50.816;4.416;2023-05-28T06:10:12;17.20;99.90
25753;DHT22;13600;50.816;4.416;2023-05-28T06:12:38;17.00;99.90
25753;DHT22;13600;50.816;4.416;2023-05-28T06:15:03;17.10;99.90
25753;DHT22;13600;50.816;4.416;2023-05-28T06:17:30;17.10;99.90
25753;DHT22;13600;50.816;4.416;2023-05-28T06:19:57;17.30;99.90
25753;DHT22;13600;50.816;4.416;2023-05-28T06:22:22;17.50;99.90
25753;DHT22;13600;50.816;4.416;2023-05-28T06:24:48;17.40;99.90
25753;DHT22;13600;50.816;4.416;2023-05-28T06:27:15;17.50;99.90
25753;DHT22;13600;50.816;4.416;2023-05-28T06:29:40;17.10;99.90
25753;DHT22;13600;50.816;4.416;2023-05-28T06:32:06;17.30;99.90
25753;DHT22;13600;50.816;4.416;2023-05-28T06:34:32;17.30;99.90
25753;DHT22;13600;50.816;4.416;2023-05-28T06:36:57;17.40;99.90
25753;DHT22;13600;50.816;4.416;2023-05-28T06:39:23;17.30;99.90
25753;DHT22;13600;50.816;4.416;2023-05-28T06:41:48;17.40;99.90
25753;DHT22;13600;50.816;4.416;2023-05-28T06:44:14;17.70;99.90
25753;DHT22;13600;50.816;4.416;2023-05-28T06:46:39;18.00;99.90
25753;DHT22;13600;50.816;4.416;2023-05-28T06:49:05;18.20;99.90
25753;DHT22;13600;50.816;4.416;2023-05-28T06:51:30;18.10;99.90
25753;DHT22;13600;50.816;4.416;2023-05-28T06:53:56;18.10;99.90
25753;DHT22;13600;50.816;4.416;2023-05-28T06:56:21;18.10;99.90
25753;DHT22;13600;50.816;4.416;2023-05-28T06:58:48;18.20;99.90
25753;DHT22;13600;50.816;4.416;2023-05-28T07:01:16;18.40;99.90
25753;DHT22;13600;50.816;4.416;2023-05-28T07:03:42;18.50;99.90
25753;DHT22;13600;50.816;4.416;2023-05-28T07:06:07;18.60;99.90
25753;DHT22;13600;50.816;4.416;2023-05-28T07:08:33;18.70;99.90
25753;DHT22;13600;50.816;4.416;2023-05-28T07:10:58;18.70;99.90
25753;DHT22;13600;50.816;4.416;2023-05-28T07:13:24;18.70;99.90
25753;DHT22;13600;50.816;4.416;2023-05-28T07:15:50;18.80;99.90
25753;DHT22;13600;50.816;4.416;2023-05-28T07:18:15;18.80;99.90
25753;DHT22;13600;50.816;4.416;2023-05-28T07:20:41;19.10;99.90
25753;DHT22;13600;50.816;4.416;2023-05-28T07:23:06;20.10;99.90
25753;DHT22;13600;50.816;4.416;2023-05-28T07:25:32;22.40;99.90
25753;DHT22;13600;50.816;4.416;2023-05-28T07:27:57;25.00;99.90
25753;DHT22;13600;50.816;4.416;2023-05-28T07:30:23;26.40;99.90
25753;DHT22;13600;50.816;4.416;2023-05-28T07:32:48;27.50;96.40
25753;DHT22;13600;50.816;4.416;2023-05-28T07:35:15;27.90;93.20
25753;DHT22;13600;50.816;4.416;2023-05-28T07:37:41;29.00;91.50
25753;DHT22;13600;50.816;4.416;2023-05-28T07:40:06;29.00;88.20
25753;DHT22;13600;50.816;4.416;2023-05-28T07:42:33;28.60;86.60
25753;DHT22;13600;50.816;4.416;2023-05-28T07:44:58;28.10;86.50
25753;DHT22;13600;50.816;4.416;2023-05-28T07:47:24;28.00;87.90
25753;DHT22;13600;50.816;4.416;2023-05-28T07:49:50;28.90;86.60
25753;DHT22;13600;50.816;4.416;2023-05-28T07:52:15;29.80;83.40
25753;DHT22;13600;50.816;4.416;2023-05-28T07:54:41;30.40;80.60
25753;DHT22;13600;50.816;4.416;2023-05-28T07:57:06;31.40;78.30
25753;DHT22;13600;50.816;4.416;2023-05-28T07:59:32;32.70;74.00
25753;DHT22;13600;50.816;4.416;2023-05-28T08:01:58;32.60;71.10
25753;DHT22;13600;50.816;4.416;2023-05-28T08:04:23;32.60;69.80
25753;DHT22;13600;50.816;4.416;2023-05-28T08:06:49;32.60;69.40
25753;DHT22;13600;50.816;4.416;2023-05-28T08:09:14;32.70;68.50
25753;DHT22;13600;50.816;4.416;2023-05-28T08:11:43;32.70;67.30
25753;DHT22;13600;50.816;4.416;2023-05-28T08:14:09;33.50;66.10
25753;DHT22;13600;50.816;4.416;2023-05-28T08:16:34;33.50;65.10
25753;DHT22;13600;50.816;4.416;2023-05-28T08:19:00;33.50;65.10
25753;DHT22;13600;50.816;4.416;2023-05-28T08:21:26;33.60;63.40
25753;DHT22;13600;50.816;4.416;2023-05-28T08:23:54;32.40;65.30
25753;DHT22;13600;50.816;4.416;2023-05-28T08:26:19;33.10;64.80
25753;DHT22;13600;50.816;4.416;2023-05-28T08:28:45;33.00;64.50
25753;DHT22;13600;50.816;4.416;2023-05-28T08:31:11;33.70;64.10
25753;DHT22;13600;50.816;4.416;2023-05-28T08:33:36;34.40;62.60
25753;DHT22;13600;50.816;4.416;2023-05-28T08:36:02;35.10;61.10
25753;DHT22;13600;50.816;4.416;2023-05-28T08:38:28;34.90;60.80
25753;DHT22;13600;50.816;4.416;2023-05-28T08:40:54;35.60;59.00
25753;DHT22;13600;50.816;4.416;2023-05-28T08:43:20;35.00;58.80
25753;DHT22;13600;50.816;4.416;2023-05-28T08:45:46;35.70;59.10
25753;DHT22;13600;50.816;4.416;2023-05-28T08:48:11;36.50;57.40
25753;DHT22;13600;50.816;4.416;2023-05-28T08:50:38;36.40;56.30
25753;DHT22;13600;50.816;4.416;2023-05-28T08:53:05;36.50;55.80
25753;DHT22;13600;50.816;4.416;2023-05-28T08:55:32;36.30;55.70
25753;DHT22;13600;50.816;4.416;2023-05-28T08:57:58;36.60;56.30
25753;DHT22;13600;50.816;4.416;2023-05-28T09:00:24;37.00;54.80
25753;DHT22;13600;50.816;4.416;2023-05-28T09:02:50;37.70;53.90
25753;DHT22;13600;50.816;4.416;2023-05-28T09:05:16;37.60;53.40
25753;DHT22;13600;50.816;4.416;2023-05-28T09:07:43;37.60;53.60
25753;DHT22;13600;50.816;4.416;2023-05-28T09:10:10;37.40;53.10
25753;DHT22;13600;50.816;4.416;2023-05-28T09:12:36;36.80;53.80
25753;DHT22;13600;50.816;4.416;2023-05-28T09:15:03;36.60;53.50
25753;DHT22;13600;50.816;4.416;2023-05-28T09:17:31;37.20;52.80
25753;DHT22;13600;50.816;4.416;2023-05-28T09:19:57;37.60;51.50
25753;DHT22;13600;50.816;4.416;2023-05-28T09:22:26;37.60;51.30
25753;DHT22;13600;50.816;4.416;2023-05-28T09:24:52;37.70;51.20
25753;DHT22;13600;50.816;4.416;2023-05-28T09:27:20;37.40;50.90
25753;DHT22;13600;50.816;4.416;2023-05-28T09:29:46;37.60;51.00
25753;DHT22;13600;50.816;4.416;2023-05-28T09:32:12;38.40;50.30
25753;DHT22;13600;50.816;4.416;2023-05-28T09:34:42;38.50;49.70
25753;DHT22;13600;50.816;4.416;2023-05-28T09:37:08;39.60;49.20
25753;DHT22;13600;50.816;4.416;2023-05-28T09:39:33;39.40;48.20
25753;DHT22;13600;50.816;4.416;2023-05-28T09:42:05;39.70;47.80
25753;DHT22;13600;50.816;4.416;2023-05-28T09:44:40;39.10;47.10
25753;DHT22;13600;50.816;4.416;2023-05-28T09:47:16;39.30;47.60
25753;DHT22;13600;50.816;4.416;2023-05-28T09:49:43;39.30;48.00
25753;DHT22;13600;50.816;4.416;2023-05-28T09:52:09;40.20;47.10
25753;DHT22;13600;50.816;4.416;2023-05-28T09:54:38;40.40;45.90
25753;DHT22;13600;50.816;4.416;2023-05-28T09:57:04;40.10;46.20
25753;DHT22;13600;50.816;4.416;2023-05-28T09:59:31;39.80;45.80
25753;DHT22;13600;50.816;4.416;2023-05-28T10:02:10;39.60;45.50
25753;DHT22;13600;50.816;4.416;2023-05-28T10:04:36;39.20;46.30
25753;DHT22;13600;50.816;4.416;2023-05-28T10:07:04;39.40;46.30
25753;DHT22;13600;50.816;4.416;2023-05-28T10:09:30;39.40;45.90
25753;DHT22;13600;50.816;4.416;2023-05-28T10:12:03;39.40;46.00
25753;DHT22;13600;50.816;4.416;2023-05-28T10:14:31;40.50;46.10
25753;DHT22;13600;50.816;4.416;2023-05-28T10:16:56;40.70;44.90
25753;DHT22;13600;50.816;4.416;2023-05-28T10:19:22;41.00;43.90
25753;DHT22;13600;50.816;4.416;2023-05-28T10:21:48;41.00;43.90
25753;DHT22;13600;50.816;4.416;2023-05-28T10:24:15;41.10;43.30
25753;DHT22;13600;50.816;4.416;2023-05-28T10:26:41;40.80;43.90
25753;DHT22;13600;50.816;4.416;2023-05-28T10:29:07;40.50;43.60
25753;DHT22;13600;50.816;4.416;2023-05-28T10:31:33;40.00;44.30
25753;DHT22;13600;50.816;4.416;2023-05-28T10:33:58;40.10;44.10
25753;DHT22;13600;50.816;4.416;2023-05-28T10:36:24;39.70;43.90
25753;DHT22;13600;50.816;4.416;2023-05-28T10:41:18;39.00;45.00
25753;DHT22;13600;50.816;4.416;2023-05-28T10:43:49;39.10;45.20
25753;DHT22;13600;50.816;4.416;2023-05-28T10:46:16;40.40;44.80
25753;DHT22;13600;50.816;4.416;2023-05-28T10:54:15;40.20;44.10
25753;DHT22;13600;50.816;4.416;2023-05-28T11:02:10;40.10;43.90
25753;DHT22;13600;50.816;4.416;2023-05-28T11:04:36;38.90;44.70
25753;DHT22;13600;50.816;4.416;2023-05-28T11:07:02;39.90;44.10
25753;DHT22;13600;50.816;4.416;2023-05-28T11:09:29;40.70;43.50
25753;DHT22;13600;50.816;4.416;2023-05-28T11:11:58;41.70;43.30
25753;DHT22;13600;50.816;4.416;2023-05-28T11:14:24;42.80;42.60
25753;DHT22;13600;50.816;4.416;2023-05-28T11:16:49;41.40;42.60
25753;DHT22;13600;50.816;4.416;2023-05-28T11:19:15;41.70;41.90
25753;DHT22;13600;50.816;4.416;2023-05-28T11:21:50;41.90;42.10
25753;DHT22;13600;50.816;4.416;2023-05-28T11:24:16;41.90;41.70
25753;DHT22;13600;50.816;4.416;2023-05-28T11:26:42;42.40;41.60
25753;DHT22;13600;50.816;4.416;2023-05-28T11:29:08;43.00;40.40
25753;DHT22;13600;50.816;4.416;2023-05-28T11:31:37;42.90;40.20
25753;DHT22;13600;50.816;4.416;2023-05-28T11:34:03;42.90;39.70
25753;DHT22;13600;50.816;4.416;2023-05-28T11:36:28;42.70;40.20
25753;DHT22;13600;50.816;4.416;2023-05-28T11:39:00;43.10;40.10
25753;DHT22;13600;50.816;4.416;2023-05-28T11:41:27;43.30;40.10
25753;DHT22;13600;50.816;4.416;2023-05-28T11:43:52;43.50;39.50
25753;DHT22;13600;50.816;4.416;2023-05-28T11:46:21;43.40;39.80
25753;DHT22;13600;50.816;4.416;2023-05-28T11:48:46;43.10;39.50
25753;DHT22;13600;50.816;4.416;2023-05-28T11:51:12;42.40;39.80
25753;DHT22;13600;50.816;4.416;2023-05-28T11:53:41;42.30;39.50
25753;DHT22;13600;50.816;4.416;2023-05-28T11:56:10;41.80;40.40
25753;DHT22;13600;50.816;4.416;2023-05-28T11:58:37;42.30;39.60
25753;DHT22;13600;50.816;4.416;2023-05-28T12:01:05;42.30;39.70
25753;DHT22;13600;50.816;4.416;2023-05-28T12:03:30;42.40;38.80
25753;DHT22;13600;50.816;4.416;2023-05-28T12:05:56;42.80;38.30
25753;DHT22;13600;50.816;4.416;2023-05-28T12:08:21;42.80;38.30
25753;DHT22;13600;50.816;4.416;2023-05-28T12:10:47;42.80;38.90
25753;DHT22;13600;50.816;4.416;2023-05-28T12:13:13;42.60;38.70
25753;DHT22;13600;50.816;4.416;2023-05-28T12:15:38;41.90;39.40
25753;DHT22;13600;50.816;4.416;2023-05-28T12:18:04;41.40;39.60
25753;DHT22;13600;50.816;4.416;2023-05-28T12:20:33;41.80;39.70
25753;DHT22;13600;50.816;4.416;2023-05-28T12:23:09;41.50;39.60
25753;DHT22;13600;50.816;4.416;2023-05-28T12:25:44;42.80;39.40
25753;DHT22;13600;50.816;4.416;2023-05-28T12:28:10;43.30;39.40
25753;DHT22;13600;50.816;4.416;2023-05-28T12:30:35;43.80;38.30
25753;DHT22;13600;50.816;4.416;2023-05-28T12:33:01;42.60;38.60
25753;DHT22;13600;50.816;4.416;2023-05-28T12:35:27;42.70;38.40
25753;DHT22;13600;50.816;4.416;2023-05-28T12:37:53;42.20;39.40
25753;DHT22;13600;50.816;4.416;2023-05-28T12:40:18;42.80;39.20
25753;DHT22;13600;50.816;4.416;2023-05-28T12:42:43;43.10;38.20
25753;DHT22;13600;50.816;4.416;2023-05-28T12:45:09;43.80;38.10
25753;DHT22;13600;50.816;4.416;2023-05-28T12:47:35;42.70;37.30
25753;DHT22;13600;50.816;4.416;2023-05-28T12:50:00;43.30;38.00
25753;DHT22;13600;50.816;4.416;2023-05-28T12:52:26;42.80;38.00
25753;DHT22;13600;50.816;4.416;2023-05-28T12:54:51;43.00;38.10
25753;DHT22;13600;50.816;4.416;2023-05-28T12:57:16;42.90;38.30
25753;DHT22;13600;50.816;4.416;2023-05-28T12:59:42;43.10;38.60
25753;DHT22;13600;50.816;4.416;2023-05-28T13:02:07;43.40;37.90
25753;DHT22;13600;50.816;4.416;2023-05-28T13:04:33;42.90;37.40
25753;DHT22;13600;50.816;4.416;2023-05-28T13:06:58;43.30;37.40
25753;DHT22;13600;50.816;4.416;2023-05-28T13:09:24;42.50;37.60
25753;DHT22;13600;50.816;4.416;2023-05-28T13:11:50;42.80;37.30
25753;DHT22;13600;50.816;4.416;2023-05-28T13:14:16;42.50;38.00
25753;DHT22;13600;50.816;4.416;2023-05-28T13:16:41;42.90;38.10
25753;DHT22;13600;50.816;4.416;2023-05-28T13:19:06;42.80;38.10
25753;DHT22;13600;50.816;4.416;2023-05-28T13:21:32;42.60;38.20
25753;DHT22;13600;50.816;4.416;2023-05-28T13:23:59;42.30;38.70
25753;DHT22;13600;50.816;4.416;2023-05-28T13:26:26;42.10;38.70
25753;DHT22;13600;50.816;4.416;2023-05-28T13:28:52;42.10;38.30
25753;DHT22;13600;50.816;4.416;2023-05-28T13:31:17;41.70;38.80
25753;DHT22;13600;50.816;4.416;2023-05-28T13:33:43;41.30;39.40
25753;DHT22;13600;50.816;4.416;2023-05-28T13:36:08;41.40;39.40
25753;DHT22;13600;50.816;4.416;2023-05-28T13:38:34;41.50;38.80
25753;DHT22;13600;50.816;4.416;2023-05-28T13:40:59;41.30;38.80
25753;DHT22;13600;50.816;4.416;2023-05-28T13:43:28;41.20;39.10
25753;DHT22;13600;50.816;4.416;2023-05-28T13:45:54;41.00;39.10
25753;DHT22;13600;50.816;4.416;2023-05-28T13:48:20;41.20;38.90
25753;DHT22;13600;50.816;4.416;2023-05-28T13:50:45;41.20;38.70
25753;DHT22;13600;50.816;4.416;2023-05-28T13:53:11;40.80;38.70
25753;DHT22;13600;50.816;4.416;2023-05-28T13:55:36;40.20;39.70
25753;DHT22;13600;50.816;4.416;2023-05-28T13:58:02;39.60;40.00
25753;DHT22;13600;50.816;4.416;2023-05-28T14:00:27;39.60;39.90
25753;DHT22;13600;50.816;4.416;2023-05-28T14:02:52;39.90;40.40
25753;DHT22;13600;50.816;4.416;2023-05-28T14:05:18;40.10;40.10
25753;DHT22;13600;50.816;4.416;2023-05-28T14:07:43;40.30;40.80
25753;DHT22;13600;50.816;4.416;2023-05-28T14:10:09;40.60;39.90
25753;DHT22;13600;50.816;4.416;2023-05-28T14:12:35;40.30;39.20
25753;DHT22;13600;50.816;4.416;2023-05-28T14:15:00;39.30;40.00
25753;DHT22;13600;50.816;4.416;2023-05-28T14:17:26;38.80;40.30
25753;DHT22;13600;50.816;4.416;2023-05-28T14:19:52;39.10;39.70
25753;DHT22;13600;50.816;4.416;2023-05-28T14:22:18;39.00;40.30
25753;DHT22;13600;50.816;4.416;2023-05-28T14:24:43;38.30;40.10
25753;DHT22;13600;50.816;4.416;2023-05-28T14:27:09;37.80;41.20
25753;DHT22;13600;50.816;4.416;2023-05-28T14:29:36;38.30;40.60
25753;DHT22;13600;50.816;4.416;2023-05-28T14:32:02;38.30;40.50
25753;DHT22;13600;50.816;4.416;2023-05-28T14:34:28;37.90;40.30
25753;DHT22;13600;50.816;4.416;2023-05-28T14:36:53;37.40;41.20
25753;DHT22;13600;50.816;4.416;2023-05-28T14:39:19;36.70;41.10
25753;DHT22;13600;50.816;4.416;2023-05-28T14:41:44;36.80;40.10
25753;DHT22;13600;50.816;4.416;2023-05-28T14:44:10;36.80;39.60
25753;DHT22;13600;50.816;4.416;2023-05-28T14:46:36;36.80;40.10
25753;DHT22;13600;50.816;4.416;2023-05-28T14:49:01;37.00;40.30
25753;DHT22;13600;50.816;4.416;2023-05-28T14:51:27;37.40;40.50
25753;DHT22;13600;50.816;4.416;2023-05-28T14:53:52;37.90;41.00
25753;DHT22;13600;50.816;4.416;2023-05-28T14:56:18;37.70;40.20
25753;DHT22;13600;50.816;4.416;2023-05-28T14:58:44;37.40;40.20
25753;DHT22;13600;50.816;4.416;2023-05-28T15:01:09;36.30;41.10
25753;DHT22;13600;50.816;4.416;2023-05-28T15:03:35;35.40;41.90
25753;DHT22;13600;50.816;4.416;2023-05-28T15:06:00;34.70;43.00
25753;DHT22;13600;50.816;4.416;2023-05-28T15:08:26;33.80;44.10
25753;DHT22;13600;50.816;4.416;2023-05-28T15:10:52;33.20;45.50
25753;DHT22;13600;50.816;4.416;2023-05-28T15:13:17;32.20;47.30
25753;DHT22;13600;50.816;4.416;2023-05-28T15:15:43;31.80;48.20
25753;DHT22;13600;50.816;4.416;2023-05-28T15:18:08;31.70;48.10
25753;DHT22;13600;50.816;4.416;2023-05-28T15:20:34;31.50;48.60
25753;DHT22;13600;50.816;4.416;2023-05-28T15:23:01;31.10;49.30
25753;DHT22;13600;50.816;4.416;2023-05-28T15:25:26;31.00;49.60
25753;DHT22;13600;50.816;4.416;2023-05-28T15:27:52;31.10;49.30
25753;DHT22;13600;50.816;4.416;2023-05-28T15:30:20;30.50;49.30
25753;DHT22;13600;50.816;4.416;2023-05-28T15:32:46;30.40;49.70
25753;DHT22;13600;50.816;4.416;2023-05-28T15:35:12;30.20;49.80